createdAt,value
2018-02-10T00:00:56.760Z,93.18
2018-02-10T00:03:23.689Z,88.25
2018-02-10T00:05:49.832Z,88.45
2018-02-10T00:08:16.769Z,92.43
2018-02-10T00:10:42.915Z,93.62
2018-02-10T00:13:09.836Z,87.43
2018-02-10T00:15:36.024Z,92.95
2018-02-10T00:18:02.218Z,90.45
2018-02-10T00:20:28.328Z,86.60
2018-02-10T00:22:55.291Z,88.62
2018-02-10T00:25:21.443Z,88.90
2018-02-10T00:27:47.590Z,92.75
2018-02-10T00:30:15.543Z,88.43
2018-02-10T00:32:41.757Z,86.40
2018-02-10T00:35:07.959Z,82.05
2018-02-10T00:37:34.124Z,88.85
2018-02-10T00:40:00.271Z,86.15
2018-02-10T00:42:28.311Z,86.75
2018-02-10T00:44:56.312Z,85.18
2018-02-10T00:47:22.488Z,83.00
2018-02-10T00:49:49.376Z,89.03
2018-02-10T00:52:15.537Z,88.40
2018-02-10T00:54:41.679Z,84.43
2018-02-10T00:57:08.575Z,84.55
2018-02-10T00:59:34.755Z,82.75
2018-02-10T01:02:00.939Z,86.75
2018-02-10T01:04:27.105Z,88.28
2018-02-10T01:06:53.284Z,85.28
2018-02-10T01:09:19.455Z,88.53
2018-02-10T01:11:45.606Z,88.80
2018-02-10T01:14:11.755Z,87.18
2018-02-10T01:16:37.939Z,86.37
2018-02-10T01:19:04.085Z,86.70
2018-02-10T01:21:30.252Z,83.87
2018-02-10T01:23:56.400Z,83.32
2018-02-10T01:26:22.542Z,86.18
2018-02-10T01:28:49.447Z,79.28
2018-02-10T01:31:15.588Z,83.10
2018-02-10T01:33:41.736Z,80.70
2018-02-10T01:36:07.937Z,84.70
2018-02-10T01:38:34.083Z,84.97
2018-02-10T01:41:00.233Z,87.20
2018-02-10T01:43:26.540Z,84.80
2018-02-10T01:45:52.871Z,88.80
2018-02-10T01:48:19.015Z,84.22
2018-02-10T01:50:45.198Z,82.32
2018-02-10T01:53:11.331Z,81.87
2018-02-10T01:55:38.232Z,79.25
2018-02-10T01:58:04.375Z,82.10
2018-02-10T02:00:30.528Z,80.00
2018-02-10T02:02:56.699Z,82.70
2018-02-10T02:05:23.596Z,82.65
2018-02-10T02:07:49.736Z,84.43
2018-02-10T02:10:15.895Z,86.15
2018-02-10T02:12:42.793Z,79.57
2018-02-10T02:15:08.964Z,81.25
2018-02-10T02:17:35.121Z,79.60
2018-02-10T02:20:02.432Z,79.18
2018-02-10T02:22:28.635Z,77.05
2018-02-10T02:24:55.479Z,80.72
2018-02-10T02:27:21.647Z,78.85
2018-02-10T02:29:47.788Z,80.43
2018-02-10T02:32:13.975Z,81.97
2018-02-10T02:34:40.343Z,78.50
2018-02-10T02:37:06.517Z,82.20
2018-02-10T02:39:32.673Z,83.40
2018-02-10T02:41:58.851Z,78.28
2018-02-10T02:44:25.124Z,75.45
2018-02-10T02:46:51.463Z,82.15
2018-02-10T02:49:18.350Z,80.32
2018-02-10T02:51:44.493Z,79.78
2018-02-10T02:54:10.644Z,79.82
2018-02-10T02:56:36.783Z,75.53
2018-02-10T02:59:02.920Z,78.12
2018-02-10T03:01:29.084Z,81.70
2018-02-10T03:03:55.978Z,79.35
2018-02-10T03:06:22.145Z,78.15
2018-02-10T03:08:48.300Z,77.10
2018-02-10T03:11:15.204Z,81.63
2018-02-10T03:13:41.356Z,75.18
2018-02-10T03:16:08.273Z,72.50
2018-02-10T03:18:34.441Z,77.15
2018-02-10T03:21:00.592Z,71.95
2018-02-10T03:23:26.754Z,76.60
2018-02-10T03:25:52.908Z,73.70
2018-02-10T03:28:19.064Z,76.30
2018-02-10T03:30:45.212Z,74.37
2018-02-10T03:33:11.391Z,75.30
2018-02-10T03:35:37.548Z,73.78
2018-02-10T03:38:03.678Z,72.93
2018-02-10T03:40:29.839Z,75.22
2018-02-10T03:42:55.971Z,75.95
2018-02-10T03:45:22.215Z,70.85
2018-02-10T03:47:48.619Z,73.68
2018-02-10T03:50:14.760Z,72.93
2018-02-10T03:52:40.939Z,73.62
2018-02-10T03:55:07.842Z,74.55
2018-02-10T03:57:33.988Z,79.05
2018-02-10T04:00:01.895Z,78.03
2018-02-10T04:02:28.776Z,76.35
2018-02-10T04:04:54.918Z,72.28
2018-02-10T04:07:21.092Z,78.65
2018-02-10T04:09:47.247Z,75.53
2018-02-10T04:12:13.384Z,72.15
2018-02-10T04:14:39.556Z,76.18
2018-02-10T04:17:05.724Z,73.10
2018-02-10T04:19:31.863Z,74.40
2018-02-10T04:21:57.989Z,75.37
2018-02-10T04:24:24.160Z,74.30
2018-02-10T04:26:50.295Z,77.72
2018-02-10T04:29:16.432Z,74.30
2018-02-10T04:31:42.604Z,73.40
2018-02-10T04:34:08.728Z,73.53
2018-02-10T04:36:34.865Z,74.10
2018-02-10T04:39:01.031Z,73.43
2018-02-10T04:41:27.192Z,77.28
2018-02-10T04:43:53.342Z,72.53
2018-02-10T04:46:19.643Z,73.47
2018-02-10T04:48:45.909Z,70.32
2018-02-10T04:51:12.064Z,69.45
2018-02-10T04:53:38.235Z,71.50
2018-02-10T04:56:05.117Z,67.62
2018-02-10T04:58:31.290Z,71.75
2018-02-10T05:00:57.468Z,73.15
2018-02-10T05:03:23.627Z,71.18
2018-02-10T05:05:49.767Z,72.78
2018-02-10T05:08:15.952Z,69.12
2018-02-10T05:10:42.835Z,69.37
2018-02-10T05:13:08.984Z,72.37
2018-02-10T05:15:35.147Z,74.00
2018-02-10T05:18:01.300Z,72.68
2018-02-10T05:20:27.420Z,71.30
2018-02-10T05:22:53.571Z,71.60
2018-02-10T05:25:20.447Z,71.82
2018-02-10T05:27:46.588Z,74.55
2018-02-10T05:30:12.759Z,70.65
2018-02-10T05:32:38.927Z,67.47
2018-02-10T05:35:05.100Z,67.35
2018-02-10T05:37:31.250Z,71.82
2018-02-10T05:39:57.384Z,68.35
2018-02-10T05:42:23.516Z,69.10
2018-02-10T05:44:49.687Z,69.80
2018-02-10T05:47:16.643Z,67.40
2018-02-10T05:49:43.044Z,71.87
2018-02-10T05:52:09.196Z,72.10
2018-02-10T05:54:36.079Z,68.00
2018-02-10T05:57:02.250Z,70.93
2018-02-10T05:59:28.399Z,67.97
2018-02-10T06:01:54.542Z,67.25
2018-02-10T06:04:21.419Z,68.85
2018-02-10T06:06:47.579Z,74.18
2018-02-10T06:09:13.744Z,71.87
2018-02-10T06:11:39.904Z,70.60
2018-02-10T06:14:06.095Z,67.15
2018-02-10T06:16:32.281Z,67.18
2018-02-10T06:18:59.907Z,63.67
2018-02-10T06:21:26.075Z,65.97
2018-02-10T06:23:52.234Z,65.15
2018-02-10T06:26:18.364Z,68.50
2018-02-10T06:28:47.267Z,65.43
2018-02-10T06:31:13.411Z,71.40
2018-02-10T06:33:39.557Z,67.62
2018-02-10T06:36:05.743Z,69.72
2018-02-10T06:38:31.891Z,66.12
2018-02-10T06:40:58.028Z,66.82
2018-02-10T06:43:24.219Z,66.70
2018-02-10T06:45:50.360Z,69.05
2018-02-10T06:48:17.423Z,67.25
2018-02-10T06:50:43.613Z,68.80
2018-02-10T06:53:10.418Z,65.18
2018-02-10T06:55:36.601Z,68.80
2018-02-10T06:58:02.772Z,67.90
2018-02-10T07:00:28.990Z,66.00
2018-02-10T07:02:55.887Z,64.80
2018-02-10T07:05:22.042Z,64.75
2018-02-10T07:07:48.291Z,67.80
2018-02-10T07:10:14.444Z,67.15
2018-02-10T07:12:40.635Z,68.65
2018-02-10T07:15:06.811Z,65.07
2018-02-10T07:17:32.984Z,68.40
2018-02-10T07:19:59.179Z,67.35
2018-02-10T07:22:25.332Z,70.12
2018-02-10T07:24:51.485Z,69.82
2018-02-10T07:27:17.669Z,69.22
2018-02-10T07:29:43.848Z,66.70
2018-02-10T07:32:10.043Z,67.85
2018-02-10T07:34:36.963Z,69.40
2018-02-10T07:37:03.132Z,66.37
2018-02-10T07:39:30.020Z,68.55
2018-02-10T07:41:56.172Z,67.20
2018-02-10T07:44:22.319Z,68.12
2018-02-10T07:46:48.464Z,64.55
2018-02-10T07:49:15.535Z,66.90
2018-02-10T07:51:41.759Z,63.95
2018-02-10T07:54:08.672Z,62.78
2018-02-10T07:56:34.899Z,60.17
2018-02-10T07:59:03.136Z,64.97
2018-02-10T08:01:31.358Z,61.00
2018-02-10T08:03:59.428Z,61.72
2018-02-10T08:06:27.427Z,64.85
2018-02-10T08:08:55.382Z,63.33
2018-02-10T08:11:23.602Z,63.03
2018-02-10T08:13:51.530Z,60.88
2018-02-10T08:16:19.747Z,60.08
2018-02-10T08:18:47.978Z,61.17
2018-02-10T08:21:15.874Z,60.95
2018-02-10T08:23:42.061Z,64.20
2018-02-10T08:26:10.003Z,59.05
2018-02-10T08:28:37.907Z,61.83
2018-02-10T08:31:05.939Z,60.50
2018-02-10T08:33:33.883Z,59.50
2018-02-10T08:36:01.774Z,60.70
2018-02-10T08:38:29.894Z,59.53
2018-02-10T08:41:00.132Z,61.80
2018-02-10T08:43:28.096Z,60.17
2018-02-10T08:45:56.071Z,60.30
2018-02-10T08:48:24.037Z,59.22
2018-02-10T08:50:52.092Z,61.83
2018-02-10T08:53:22.482Z,57.65
2018-02-10T08:55:50.390Z,60.95
2018-02-10T08:58:20.649Z,57.88
2018-02-10T09:00:48.611Z,58.80
2018-02-10T09:03:16.592Z,56.55
2018-02-10T09:05:43.503Z,60.25
2018-02-10T09:08:11.638Z,57.80
2018-02-10T09:10:39.679Z,62.72
2018-02-10T09:13:07.599Z,62.00
2018-02-10T09:15:35.517Z,59.30
2018-02-10T09:18:03.543Z,60.53
2018-02-10T09:20:31.511Z,60.47
2018-02-10T09:22:59.427Z,62.90
2018-02-10T09:25:29.321Z,62.20
2018-02-10T09:27:57.260Z,62.27
2018-02-10T09:30:25.175Z,61.73
2018-02-10T09:32:53.139Z,62.60
2018-02-10T09:35:21.086Z,61.20
2018-02-10T09:37:49.004Z,61.67
2018-02-10T09:40:16.923Z,60.70
2018-02-10T09:42:44.846Z,62.20
2018-02-10T09:45:12.773Z,63.27
2018-02-10T09:47:43.072Z,64.83
2018-02-10T09:50:12.971Z,63.10
2018-02-10T09:52:41.003Z,62.97
2018-02-10T09:55:09.199Z,65.17
2018-02-10T09:57:37.145Z,63.30
2018-02-10T10:00:05.112Z,65.23
2018-02-10T10:02:33.093Z,69.00
2018-02-10T10:05:01.052Z,64.57
2018-02-10T10:07:29.035Z,61.90
2018-02-10T10:09:56.983Z,58.47
2018-02-10T10:12:24.899Z,61.83
2018-02-10T10:14:52.804Z,62.63
2018-02-10T10:17:20.762Z,62.70
2018-02-10T10:19:48.723Z,60.73
2018-02-10T10:22:16.619Z,63.40
2018-02-10T10:24:44.547Z,59.23
2018-02-10T10:27:12.447Z,60.10
2018-02-10T10:29:40.363Z,60.77
2018-02-10T10:32:10.496Z,60.67
2018-02-10T10:34:38.423Z,60.43
2018-02-10T10:37:06.384Z,57.40
2018-02-10T10:39:34.338Z,55.17
2018-02-10T10:42:04.390Z,55.37
2018-02-10T10:44:32.322Z,54.00
2018-02-10T10:47:00.282Z,57.97
2018-02-10T10:49:28.302Z,57.27
2018-02-10T10:51:56.202Z,54.97
2018-02-10T10:54:24.222Z,57.20
2018-02-10T10:56:52.435Z,56.30
2018-02-10T10:59:20.383Z,56.00
2018-02-10T11:01:48.368Z,55.27
2018-02-10T11:04:16.317Z,56.93
2018-02-10T11:06:44.279Z,53.90
2018-02-10T11:09:12.231Z,51.77
2018-02-10T11:11:42.431Z,54.40
2018-02-10T11:14:10.404Z,52.53
2018-02-10T11:16:38.375Z,55.53
2018-02-10T11:19:06.283Z,54.83
2018-02-10T11:21:34.255Z,55.70
2018-02-10T11:24:02.214Z,53.90
2018-02-10T11:26:30.124Z,55.57
2018-02-10T11:28:58.081Z,60.77
2018-02-10T11:31:26.018Z,55.27
2018-02-10T11:33:53.970Z,56.17
2018-02-10T11:36:21.871Z,54.10
2018-02-10T11:38:49.801Z,50.27
2018-02-10T11:41:17.705Z,52.00
2018-02-10T11:43:45.606Z,51.37
2018-02-10T11:46:13.584Z,52.40
2018-02-10T11:48:41.498Z,51.07
2018-02-10T11:51:09.436Z,53.37
2018-02-10T11:53:37.384Z,46.30
2018-02-10T11:56:05.363Z,44.93
2018-02-10T11:58:33.303Z,45.03
2018-02-10T12:01:01.228Z,44.10
2018-02-10T12:03:29.187Z,42.23
2018-02-10T12:05:57.122Z,38.60
2018-02-10T12:08:25.070Z,43.47
2018-02-10T12:10:52.995Z,38.57
2018-02-10T12:13:20.927Z,40.23
2018-02-10T12:15:48.879Z,40.27
2018-02-10T12:18:16.766Z,35.70
2018-02-10T12:20:44.695Z,37.80
2018-02-10T12:23:12.617Z,35.77
2018-02-10T12:25:40.520Z,36.63
2018-02-10T12:28:08.427Z,34.63
2018-02-10T12:30:36.364Z,34.00
2018-02-10T12:33:04.298Z,37.23
2018-02-10T12:35:32.260Z,33.40
2018-02-10T12:38:00.188Z,33.67
2018-02-10T12:40:28.107Z,33.13
2018-02-10T12:42:56.025Z,34.90
2018-02-10T12:45:23.938Z,36.30
2018-02-10T12:50:56.872Z,32.10
2018-02-10T12:53:24.776Z,31.90
2018-02-10T12:55:52.686Z,31.63
2018-02-10T12:58:20.708Z,31.50
2018-02-10T13:00:48.887Z,34.13
2018-02-10T13:03:16.802Z,33.70
2018-02-10T13:05:44.727Z,31.73
2018-02-10T13:08:12.651Z,32.80
2018-02-10T13:10:40.555Z,33.30
2018-02-10T13:13:08.509Z,29.87
2018-02-10T13:15:36.423Z,30.77
2018-02-10T13:18:04.371Z,30.97
2018-02-10T13:20:32.306Z,28.63
2018-02-10T13:23:00.224Z,31.83
2018-02-10T13:25:28.118Z,28.40
2018-02-10T13:27:56.055Z,28.27
2018-02-10T13:30:23.958Z,29.33
2018-02-10T13:32:51.886Z,28.43
2018-02-10T13:35:19.871Z,29.77
2018-02-10T13:37:47.803Z,26.97
2018-02-10T13:40:18.043Z,26.90
2018-02-10T13:42:46.015Z,28.03
2018-02-10T13:45:13.931Z,26.73
2018-02-10T13:47:41.867Z,26.03
2018-02-10T13:50:09.831Z,26.23
2018-02-10T13:52:37.779Z,25.90
2018-02-10T13:55:05.727Z,24.53
2018-02-10T13:57:33.661Z,29.93
2018-02-10T14:00:06.166Z,27.60
2018-02-10T14:02:34.308Z,26.87
2018-02-10T14:05:02.217Z,27.40
2018-02-10T14:07:32.375Z,27.00
2018-02-10T14:10:00.313Z,26.13
2018-02-10T14:12:28.243Z,26.50
2018-02-10T14:14:56.170Z,27.93
2018-02-10T14:17:26.391Z,26.90
2018-02-10T14:19:54.299Z,27.60
2018-02-10T14:22:22.255Z,27.10
2018-02-10T14:24:50.256Z,26.27
2018-02-10T14:27:18.167Z,27.00
2018-02-10T14:29:47.781Z,27.00
2018-02-10T14:32:18.294Z,25.20
2018-02-10T14:34:48.641Z,26.40
2018-02-10T14:37:18.755Z,23.97
2018-02-10T14:39:49.271Z,23.33
2018-02-10T14:42:17.227Z,24.80
2018-02-10T14:44:45.183Z,25.70
2018-02-10T14:47:13.122Z,24.17
2018-02-10T14:49:41.043Z,23.87
2018-02-10T14:52:08.979Z,24.60
2018-02-10T14:54:36.870Z,29.23
2018-02-10T14:57:04.771Z,25.30
2018-02-10T14:59:32.683Z,27.20
2018-02-10T15:02:00.726Z,27.03
2018-02-10T15:04:28.701Z,30.37
2018-02-10T15:06:56.654Z,28.27
2018-02-10T15:09:24.559Z,26.40
2018-02-10T15:11:52.474Z,28.13
2018-02-10T15:14:20.382Z,30.00
2018-02-10T15:16:48.279Z,29.10
2018-02-10T15:19:16.175Z,28.47
2018-02-10T15:21:44.103Z,29.27
2018-02-10T15:24:10.263Z,30.30
2018-02-10T15:26:36.443Z,29.40
2018-02-10T15:29:02.619Z,30.47
2018-02-10T15:31:41.975Z,27.92
2018-02-10T15:34:21.340Z,27.50
2018-02-10T15:36:47.508Z,28.53
2018-02-10T15:39:13.651Z,29.80
2018-02-10T15:41:39.834Z,30.98
2018-02-10T15:44:05.979Z,29.80
2018-02-10T15:46:32.163Z,29.92
2018-02-10T15:48:58.360Z,30.60
2018-02-10T15:51:24.517Z,32.38
2018-02-10T15:53:51.448Z,30.25
2018-02-10T15:56:17.641Z,33.75
2018-02-10T15:58:43.852Z,29.77
2018-02-10T16:01:10.015Z,29.95
2018-02-10T16:03:36.315Z,31.92
2018-02-10T16:06:02.703Z,31.90
2018-02-10T16:08:28.887Z,30.00
2018-02-10T16:10:55.895Z,33.20
2018-02-10T16:13:22.047Z,31.10
2018-02-10T16:15:50.011Z,29.67
2018-02-10T16:18:16.879Z,30.77
2018-02-10T16:20:43.795Z,33.97
2018-02-10T16:23:10.010Z,32.03
2018-02-10T16:25:36.228Z,32.25
2018-02-10T16:28:02.409Z,34.88
2018-02-10T16:30:28.577Z,33.38
2018-02-10T16:32:54.812Z,34.25
2018-02-10T16:35:21.739Z,32.10
2018-02-10T16:37:48.660Z,35.60
2018-02-10T16:40:14.846Z,32.83
2018-02-10T16:42:41.762Z,38.10
2018-02-10T16:45:07.927Z,34.50
2018-02-10T16:47:34.120Z,34.58
2018-02-10T16:50:00.310Z,35.03
2018-02-10T16:52:26.504Z,34.50
2018-02-10T16:54:52.705Z,33.30
2018-02-10T16:57:18.884Z,36.85
2018-02-10T16:59:45.077Z,35.22
2018-02-10T17:02:11.258Z,37.25
2018-02-10T17:04:38.407Z,32.90
2018-02-10T17:07:04.848Z,33.65
2018-02-10T17:09:31.077Z,36.60
2018-02-10T17:11:57.270Z,36.35
2018-02-10T17:14:23.500Z,35.88
2018-02-10T17:16:49.662Z,39.42
2018-02-10T17:19:15.839Z,36.92
2018-02-10T17:21:42.006Z,41.10
2018-02-10T17:24:08.230Z,37.83
2018-02-10T17:26:34.415Z,36.60
2018-02-10T17:29:01.456Z,37.75
2018-02-10T17:31:28.408Z,37.42
2018-02-10T17:33:54.584Z,39.53
2018-02-10T17:36:20.768Z,38.40
2018-02-10T17:38:53.088Z,38.60
2018-02-10T17:41:19.252Z,39.22
2018-02-10T17:43:45.438Z,41.03
2018-02-10T17:46:12.354Z,37.75
2018-02-10T17:48:42.489Z,38.90
2018-02-10T17:51:16.830Z,40.83
2018-02-10T17:53:43.732Z,40.72
2018-02-10T17:59:03.379Z,38.28
2018-02-10T18:01:29.579Z,37.53
2018-02-10T18:03:55.769Z,36.55
2018-02-10T18:06:22.040Z,38.80
2018-02-10T18:08:48.433Z,40.35
2018-02-10T18:11:14.641Z,38.13
2018-02-10T18:13:40.821Z,37.20
2018-02-10T18:16:07.740Z,37.50
2018-02-10T18:18:34.681Z,40.65
2018-02-10T18:21:00.886Z,38.60
2018-02-10T18:23:27.051Z,41.55
2018-02-10T18:25:53.244Z,38.38
2018-02-10T18:28:19.416Z,38.40
2018-02-10T18:30:45.597Z,36.53
2018-02-10T18:33:11.781Z,39.70
2018-02-10T18:35:37.968Z,37.80
2018-02-10T18:38:04.135Z,38.90
2018-02-10T18:40:30.335Z,39.60
2018-02-10T18:42:57.254Z,37.92
2018-02-10T18:45:23.449Z,39.25
2018-02-10T18:47:49.632Z,38.63
2018-02-10T18:50:17.295Z,38.05
2018-02-10T18:52:44.246Z,39.93
2018-02-10T18:55:10.474Z,36.17
2018-02-10T18:57:37.455Z,38.30
2018-02-10T19:00:03.880Z,37.65
2018-02-10T19:02:30.482Z,38.50
2018-02-10T19:04:57.844Z,39.42
2018-02-10T19:07:24.331Z,39.45
2018-02-10T19:09:50.537Z,43.03
2018-02-10T19:12:16.707Z,42.00
2018-02-10T19:14:43.652Z,40.45
2018-02-10T19:17:10.555Z,37.97
2018-02-10T19:19:37.547Z,40.22
2018-02-10T19:22:03.727Z,39.72
2018-02-10T19:24:29.893Z,40.38
2018-02-10T19:26:56.852Z,39.92
2018-02-10T19:29:23.815Z,42.30
2018-02-10T19:31:50.742Z,40.95
2018-02-10T19:34:16.997Z,40.42
2018-02-10T19:36:43.280Z,39.30
2018-02-10T19:39:09.499Z,40.00
2018-02-10T19:41:35.790Z,39.90
2018-02-10T19:44:02.734Z,39.30
2018-02-10T19:46:28.963Z,39.58
2018-02-10T19:48:55.143Z,42.70
2018-02-10T19:51:21.336Z,39.80
2018-02-10T19:53:49.051Z,40.10
2018-02-10T19:56:17.605Z,38.83
2018-02-10T19:58:44.060Z,37.80
2018-02-10T20:01:11.008Z,36.67
2018-02-10T20:03:38.870Z,38.13
2018-02-10T20:06:05.795Z,35.40
2018-02-10T20:08:35.211Z,36.42
2018-02-10T20:11:02.840Z,34.20
2018-02-10T20:13:29.067Z,34.25
2018-02-10T20:15:55.280Z,34.10
2018-02-10T20:18:21.504Z,33.60
2018-02-10T20:20:47.727Z,34.60
2018-02-10T20:23:13.925Z,35.42
2018-02-10T20:25:40.121Z,34.40
2018-02-10T20:28:06.326Z,33.75
2018-02-10T20:30:33.268Z,30.27
2018-02-10T20:33:01.851Z,33.13
2018-02-10T20:35:28.035Z,36.58
2018-02-10T20:37:54.293Z,35.78
2018-02-10T20:40:20.508Z,35.03
2018-02-10T20:42:46.683Z,33.75
2018-02-10T20:45:12.859Z,36.28
2018-02-10T20:47:39.771Z,33.67
2018-02-10T20:50:05.967Z,34.25
2018-02-10T20:52:32.132Z,33.65
2018-02-10T20:54:58.335Z,31.55
2018-02-10T20:57:24.517Z,33.67
2018-02-10T20:59:51.489Z,31.23
2018-02-10T21:02:18.446Z,32.35
2018-02-10T21:04:45.364Z,37.55
2018-02-10T21:07:11.540Z,32.70
2018-02-10T21:09:37.912Z,34.70
2018-02-10T21:12:04.330Z,33.83
2018-02-10T21:14:30.511Z,33.28
2018-02-10T21:16:56.745Z,34.20
2018-02-10T21:19:23.688Z,36.58
2018-02-10T21:21:49.900Z,35.22
2018-02-10T21:24:16.089Z,35.33
2018-02-10T21:26:43.016Z,35.47
2018-02-10T21:29:09.200Z,35.42
2018-02-10T21:31:35.437Z,35.90
2018-02-10T21:34:02.335Z,34.72
2018-02-10T21:36:29.253Z,35.33
2018-02-10T21:38:55.459Z,35.00
2018-02-10T21:41:21.632Z,37.25
2018-02-10T21:43:48.564Z,35.57
2018-02-10T21:46:14.750Z,36.50
2018-02-10T21:48:41.686Z,36.83
2018-02-10T21:51:07.866Z,35.97
2018-02-10T21:53:34.057Z,40.60
2018-02-10T21:56:00.235Z,40.00
2018-02-10T21:58:26.417Z,37.92
2018-02-10T22:00:52.633Z,37.10
2018-02-10T22:03:18.827Z,38.47
2018-02-10T22:05:45.028Z,40.78
2018-02-10T22:08:11.260Z,38.65
2018-02-10T22:10:37.527Z,40.10
2018-02-10T22:13:03.783Z,41.95
2018-02-10T22:15:29.988Z,42.20
2018-02-10T22:17:56.891Z,40.47
2018-02-10T22:20:23.054Z,40.60
2018-02-10T22:22:49.295Z,38.10
2018-02-10T22:25:16.192Z,37.38
2018-02-10T22:27:42.368Z,38.22
2018-02-10T22:30:09.288Z,38.80
2018-02-10T22:32:35.480Z,38.83
2018-02-10T22:35:01.648Z,41.90
2018-02-10T22:37:29.362Z,40.20
2018-02-10T22:39:56.283Z,43.53
2018-02-10T22:42:22.488Z,44.15
2018-02-10T22:44:48.731Z,43.35
2018-02-10T22:47:14.879Z,43.42
2018-02-10T22:49:41.081Z,40.90
2018-02-10T22:52:07.262Z,42.75
2018-02-10T22:54:34.227Z,41.65
2018-02-10T22:57:00.430Z,42.45
2018-02-10T22:59:26.605Z,44.13
2018-02-10T23:01:53.511Z,40.95
2018-02-10T23:04:19.688Z,39.60
2018-02-10T23:06:46.616Z,43.78
2018-02-10T23:09:12.794Z,38.75
2018-02-10T23:11:39.075Z,36.35
2018-02-10T23:14:05.433Z,37.08
2018-02-10T23:16:31.613Z,35.70
2018-02-10T23:18:57.806Z,35.58
2018-02-10T23:21:24.740Z,32.75
2018-02-10T23:23:50.911Z,34.65
2018-02-10T23:26:17.095Z,33.28
2018-02-10T23:28:43.279Z,33.60
2018-02-10T23:31:11.554Z,31.80
2018-02-10T23:33:39.165Z,33.15
2018-02-10T23:36:05.332Z,31.98
2018-02-10T23:38:32.259Z,31.40
2018-02-10T23:40:58.447Z,33.78
2018-02-10T23:43:25.415Z,33.75
2018-02-10T23:45:51.595Z,33.28
2018-02-10T23:48:17.784Z,35.13
2018-02-10T23:50:44.014Z,33.40
2018-02-10T23:53:10.176Z,35.75
2018-02-10T23:55:36.372Z,35.55
2018-02-10T23:58:02.582Z,36.65
